Overview Statistics Trail Chart Weather Telemetry Raw packets
 

This is the latest recevied weather packets stored in our database for station/object JH7UAX-10. If no packets are shown the sender has not sent any weather packets the latest 10 day(s).

<< 1 2 3 4 >>
Time Temp. Humidity Pressure Rain* Wind** Luminosity Snow
1788586155 25° C 67% 1027.6 hPa 0 mm - - -
1788584355 23.33° C 72% 1027.7 hPa 0 mm - - -
1788583455 23.33° C 71% 1027.7 hPa 0 mm - - -
1788582555 24.44° C 69% 1027.7 hPa 0 mm - - -
1788581654 24.44° C 71% 1027.7 hPa 0 mm - - -
1788580755 22.78° C 74% 1027.8 hPa 0 mm - - -
1788579854 22.22° C 75% 1027.9 hPa 0 mm - - -
1788578955 22.78° C 76% 1027.9 hPa 0 mm - - -
1788578055 22.78° C 72% 1027.8 hPa 0 mm - - -
1788577154 23.33° C 72% 1027.8 hPa 0 mm - - -
1788576254 22.22° C 77% 1027.8 hPa 0 mm - - -
1788575354 22.22° C 76% 1027.9 hPa 0 mm - - -
1788573554 21.67° C 75% 1028 hPa 0 mm - - -
1788570854 21.67° C 77% 1028.3 hPa 0 mm - - -
1788569955 22.22° C 75% 1028.3 hPa 0 mm - - -
1788569054 22.78° C 74% 1028.2 hPa 0 mm - - -
1788567263 22.22° C 77% 1028.1 hPa 0 mm - - -
1788566355 22.22° C 82% 1028 hPa 0 mm - - -
1788565455 21.67° C 83% 1028 hPa 0 mm - - -
1788563655 20° C 88% 1028.1 hPa 0 mm - - -
1788561855 20° C 89% 1027.9 hPa 0 mm - - -
1788560954 18.89° C 93% 1027.7 hPa 0 mm - - -
1788558255 16.11° C 96% 1027.4 hPa 0 mm - - -
1788557355 15.56° C 96% 1027.3 hPa 0 mm - - -
1788556454 15.56° C 96% 1027.3 hPa 0 mm - - -

* Rain latest hour (hover to see other rain measurements)
** Current wind speed in m/s (hover to see current wind gust speed)